Terminal Aerodrome Forecast
Issued by NWS Duluth, MN

Home | Current Version | Previous Version | Text Only | Print | Product List | Glossary On
Versions: 1 2 3 4 5 6 7 8 9 10 11 12 13 14 15 16 17 18 19 20 21
000
FTUS43 KDLH 180200 AAA
TAFINL
TAF AMD
KINL 180225Z 1802/1824 06003KT P6SM SCT025
     FM180900 14004KT P6SM SCT020 BKN035
     FM181600 15008KT P6SM BKN050=

USA.gov is the U.S. government's official web portal to all federal, state and local government web resources and services.